sensor_id;sensor_type;location;lat;lon;timestamp;temperature;humidity
51021;DHT22;38907;45.562;8.856;2022-09-13T00:03:14;21.10;99.90
51021;DHT22;38907;45.562;8.856;2022-09-13T00:08:17;21.10;99.90
51021;DHT22;38907;45.562;8.856;2022-09-13T00:13:20;20.90;99.90
51021;DHT22;38907;45.562;8.856;2022-09-13T00:18:23;20.80;99.90
51021;DHT22;38907;45.562;8.856;2022-09-13T00:23:26;20.70;99.90
51021;DHT22;38907;45.562;8.856;2022-09-13T00:28:30;20.70;99.90
51021;DHT22;38907;45.562;8.856;2022-09-13T00:33:33;20.70;99.90
51021;DHT22;38907;45.562;8.856;2022-09-13T00:38:36;20.70;99.90
51021;DHT22;38907;45.562;8.856;2022-09-13T00:43:48;20.70;99.90
51021;DHT22;38907;45.562;8.856;2022-09-13T00:48:55;20.60;99.90
51021;DHT22;38907;45.562;8.856;2022-09-13T00:54:01;20.50;99.90
51021;DHT22;38907;45.562;8.856;2022-09-13T00:59:08;20.50;99.90
51021;DHT22;38907;45.562;8.856;2022-09-13T01:04:11;20.40;99.90
51021;DHT22;38907;45.562;8.856;2022-09-13T01:09:14;20.30;99.90
51021;DHT22;38907;45.562;8.856;2022-09-13T01:14:19;20.20;99.90
51021;DHT22;38907;45.562;8.856;2022-09-13T01:19:21;20.10;99.90
51021;DHT22;38907;45.562;8.856;2022-09-13T01:30:11;20.30;99.90
51021;DHT22;38907;45.562;8.856;2022-09-13T01:35:21;20.30;99.90
51021;DHT22;38907;45.562;8.856;2022-09-13T01:40:35;20.20;99.90
51021;DHT22;38907;45.562;8.856;2022-09-13T01:45:52;20.00;99.90
51021;DHT22;38907;45.562;8.856;2022-09-13T01:50:59;20.10;99.90
51021;DHT22;38907;45.562;8.856;2022-09-13T01:56:06;20.20;99.90
51021;DHT22;38907;45.562;8.856;2022-09-13T02:01:16;20.20;99.90
51021;DHT22;38907;45.562;8.856;2022-09-13T02:06:22;20.10;99.90
51021;DHT22;38907;45.562;8.856;2022-09-13T02:11:26;20.00;99.90
51021;DHT22;38907;45.562;8.856;2022-09-13T02:16:32;20.00;99.90
51021;DHT22;38907;45.562;8.856;2022-09-13T02:21:37;19.90;99.90
51021;DHT22;38907;45.562;8.856;2022-09-13T02:26:42;19.80;99.90
51021;DHT22;38907;45.562;8.856;2022-09-13T02:31:50;19.90;99.90
51021;DHT22;38907;45.562;8.856;2022-09-13T02:36:55;19.90;99.90
51021;DHT22;38907;45.562;8.856;2022-09-13T02:42:03;19.90;99.90
51021;DHT22;38907;45.562;8.856;2022-09-13T02:47:30;19.90;99.90
51021;DHT22;38907;45.562;8.856;2022-09-13T02:52:44;19.90;99.90
51021;DHT22;38907;45.562;8.856;2022-09-13T02:57:56;19.90;99.90
51021;DHT22;38907;45.562;8.856;2022-09-13T03:03:05;19.80;99.90
51021;DHT22;38907;45.562;8.856;2022-09-13T03:08:11;19.80;99.90
51021;DHT22;38907;45.562;8.856;2022-09-13T03:13:31;19.60;99.90
51021;DHT22;38907;45.562;8.856;2022-09-13T03:18:48;19.70;99.90
51021;DHT22;38907;45.562;8.856;2022-09-13T03:24:02;19.70;99.90
51021;DHT22;38907;45.562;8.856;2022-09-13T03:29:22;19.60;99.90
51021;DHT22;38907;45.562;8.856;2022-09-13T03:34:33;19.60;99.90
51021;DHT22;38907;45.562;8.856;2022-09-13T03:39:41;19.50;99.90
51021;DHT22;38907;45.562;8.856;2022-09-13T03:44:46;19.40;99.90
51021;DHT22;38907;45.562;8.856;2022-09-13T03:49:52;19.30;99.90
51021;DHT22;38907;45.562;8.856;2022-09-13T03:54:57;19.40;99.90
51021;DHT22;38907;45.562;8.856;2022-09-13T04:00:00;19.50;99.90
51021;DHT22;38907;45.562;8.856;2022-09-13T04:05:05;19.50;99.90
51021;DHT22;38907;45.562;8.856;2022-09-13T04:10:08;19.50;99.90
51021;DHT22;38907;45.562;8.856;2022-09-13T04:15:12;19.40;99.90
51021;DHT22;38907;45.562;8.856;2022-09-13T04:20:16;19.30;99.90
51021;DHT22;38907;45.562;8.856;2022-09-13T04:25:19;19.30;99.90
51021;DHT22;38907;45.562;8.856;2022-09-13T04:30:22;19.30;99.90
51021;DHT22;38907;45.562;8.856;2022-09-13T04:35:26;19.40;99.90
51021;DHT22;38907;45.562;8.856;2022-09-13T04:40:29;19.30;99.90
51021;DHT22;38907;45.562;8.856;2022-09-13T04:45:31;19.30;99.90
51021;DHT22;38907;45.562;8.856;2022-09-13T04:50:35;19.30;99.90
51021;DHT22;38907;45.562;8.856;2022-09-13T04:55:38;19.10;99.90
51021;DHT22;38907;45.562;8.856;2022-09-13T05:00:40;19.10;99.90
51021;DHT22;38907;45.562;8.856;2022-09-13T05:05:44;19.20;99.90
51021;DHT22;38907;45.562;8.856;2022-09-13T05:10:47;19.10;99.90
51021;DHT22;38907;45.562;8.856;2022-09-13T05:15:53;18.80;99.90
51021;DHT22;38907;45.562;8.856;2022-09-13T05:20:58;18.80;99.90
51021;DHT22;38907;45.562;8.856;2022-09-13T05:26:04;18.80;99.90
51021;DHT22;38907;45.562;8.856;2022-09-13T05:31:12;18.80;99.90
51021;DHT22;38907;45.562;8.856;2022-09-13T05:36:16;18.90;99.90
51021;DHT22;38907;45.562;8.856;2022-09-13T05:41:20;19.00;99.90
51021;DHT22;38907;45.562;8.856;2022-09-13T05:46:22;19.10;99.90
51021;DHT22;38907;45.562;8.856;2022-09-13T05:51:26;19.40;99.90
51021;DHT22;38907;45.562;8.856;2022-09-13T05:56:29;19.60;99.90
51021;DHT22;38907;45.562;8.856;2022-09-13T06:01:31;19.80;99.90
51021;DHT22;38907;45.562;8.856;2022-09-13T06:06:35;19.80;99.90
51021;DHT22;38907;45.562;8.856;2022-09-13T06:11:38;19.80;99.90
51021;DHT22;38907;45.562;8.856;2022-09-13T06:16:40;20.00;99.90
51021;DHT22;38907;45.562;8.856;2022-09-13T06:21:44;20.20;99.90
51021;DHT22;38907;45.562;8.856;2022-09-13T06:26:47;20.30;99.90
51021;DHT22;38907;45.562;8.856;2022-09-13T06:31:49;20.30;99.90
51021;DHT22;38907;45.562;8.856;2022-09-13T06:36:53;20.30;99.90
51021;DHT22;38907;45.562;8.856;2022-09-13T06:41:56;20.40;99.90
51021;DHT22;38907;45.562;8.856;2022-09-13T06:46:58;20.60;99.90
51021;DHT22;38907;45.562;8.856;2022-09-13T06:52:02;20.70;99.90
51021;DHT22;38907;45.562;8.856;2022-09-13T06:57:05;20.80;99.90
51021;DHT22;38907;45.562;8.856;2022-09-13T07:02:08;20.90;99.90
51021;DHT22;38907;45.562;8.856;2022-09-13T07:07:12;21.00;99.90
51021;DHT22;38907;45.562;8.856;2022-09-13T07:12:15;21.10;99.90
51021;DHT22;38907;45.562;8.856;2022-09-13T07:17:18;21.30;99.90
51021;DHT22;38907;45.562;8.856;2022-09-13T07:22:22;21.40;99.90
51021;DHT22;38907;45.562;8.856;2022-09-13T07:27:27;21.50;99.90
51021;DHT22;38907;45.562;8.856;2022-09-13T07:32:31;21.60;99.90
51021;DHT22;38907;45.562;8.856;2022-09-13T07:37:35;21.60;99.90
51021;DHT22;38907;45.562;8.856;2022-09-13T07:42:38;21.90;99.90
51021;DHT22;38907;45.562;8.856;2022-09-13T07:47:40;22.00;99.90
51021;DHT22;38907;45.562;8.856;2022-09-13T07:52:45;22.00;99.90
51021;DHT22;38907;45.562;8.856;2022-09-13T07:57:48;22.10;99.90
51021;DHT22;38907;45.562;8.856;2022-09-13T08:02:50;22.30;99.90
51021;DHT22;38907;45.562;8.856;2022-09-13T08:07:54;22.50;99.90
51021;DHT22;38907;45.562;8.856;2022-09-13T08:12:56;22.60;99.90
51021;DHT22;38907;45.562;8.856;2022-09-13T08:17:59;22.60;99.90
51021;DHT22;38907;45.562;8.856;2022-09-13T08:23:03;22.60;99.90
51021;DHT22;38907;45.562;8.856;2022-09-13T08:28:06;22.60;99.90
51021;DHT22;38907;45.562;8.856;2022-09-13T08:33:10;22.80;99.90
51021;DHT22;38907;45.562;8.856;2022-09-13T08:38:14;23.10;99.90
51021;DHT22;38907;45.562;8.856;2022-09-13T08:43:23;23.10;99.90
51021;DHT22;38907;45.562;8.856;2022-09-13T08:48:32;23.10;99.90
51021;DHT22;38907;45.562;8.856;2022-09-13T08:53:42;23.40;99.90
51021;DHT22;38907;45.562;8.856;2022-09-13T08:58:59;23.40;99.90
51021;DHT22;38907;45.562;8.856;2022-09-13T09:04:14;23.30;99.90
51021;DHT22;38907;45.562;8.856;2022-09-13T09:09:23;23.40;99.90
51021;DHT22;38907;45.562;8.856;2022-09-13T09:14:31;23.70;99.90
51021;DHT22;38907;45.562;8.856;2022-09-13T09:19:36;23.70;99.90
51021;DHT22;38907;45.562;8.856;2022-09-13T09:24:45;23.80;99.90
51021;DHT22;38907;45.562;8.856;2022-09-13T09:29:51;23.90;99.90
51021;DHT22;38907;45.562;8.856;2022-09-13T09:35:09;24.00;99.90
51021;DHT22;38907;45.562;8.856;2022-09-13T09:40:15;24.10;99.90
51021;DHT22;38907;45.562;8.856;2022-09-13T09:45:24;24.40;99.90
51021;DHT22;38907;45.562;8.856;2022-09-13T09:50:29;24.70;99.90
51021;DHT22;38907;45.562;8.856;2022-09-13T09:55:41;24.70;99.90
51021;DHT22;38907;45.562;8.856;2022-09-13T10:00:52;24.80;99.90
51021;DHT22;38907;45.562;8.856;2022-09-13T10:06:04;25.00;99.90
51021;DHT22;38907;45.562;8.856;2022-09-13T10:11:09;25.00;99.70
51021;DHT22;38907;45.562;8.856;2022-09-13T10:16:24;25.20;99.90
51021;DHT22;38907;45.562;8.856;2022-09-13T10:21:27;25.40;99.40
51021;DHT22;38907;45.562;8.856;2022-09-13T10:26:32;25.30;98.40
51021;DHT22;38907;45.562;8.856;2022-09-13T10:31:39;25.20;98.70
51021;DHT22;38907;45.562;8.856;2022-09-13T10:36:50;25.20;98.80
51021;DHT22;38907;45.562;8.856;2022-09-13T10:41:59;25.40;99.00
51021;DHT22;38907;45.562;8.856;2022-09-13T10:47:05;25.50;99.30
51021;DHT22;38907;45.562;8.856;2022-09-13T10:52:33;25.40;98.90
51021;DHT22;38907;45.562;8.856;2022-09-13T10:57:37;25.90;98.80
51021;DHT22;38907;45.562;8.856;2022-09-13T11:03:10;26.00;98.70
51021;DHT22;38907;45.562;8.856;2022-09-13T11:08:40;26.20;97.80
51021;DHT22;38907;45.562;8.856;2022-09-13T11:14:01;26.20;98.10
51021;DHT22;38907;45.562;8.856;2022-09-13T11:19:28;26.20;97.50
51021;DHT22;38907;45.562;8.856;2022-09-13T11:24:42;26.30;97.40
51021;DHT22;38907;45.562;8.856;2022-09-13T11:30:07;26.50;97.20
51021;DHT22;38907;45.562;8.856;2022-09-13T11:35:33;26.40;95.90
51021;DHT22;38907;45.562;8.856;2022-09-13T11:40:46;26.60;96.50
51021;DHT22;38907;45.562;8.856;2022-09-13T11:46:00;26.90;96.10
51021;DHT22;38907;45.562;8.856;2022-09-13T11:51:15;27.00;95.60
51021;DHT22;38907;45.562;8.856;2022-09-13T11:56:25;27.20;96.10
51021;DHT22;38907;45.562;8.856;2022-09-13T12:01:35;27.10;95.40
51021;DHT22;38907;45.562;8.856;2022-09-13T12:06:41;26.80;95.70
51021;DHT22;38907;45.562;8.856;2022-09-13T12:11:49;27.10;96.20
51021;DHT22;38907;45.562;8.856;2022-09-13T12:16:58;27.20;95.70
51021;DHT22;38907;45.562;8.856;2022-09-13T12:22:06;27.20;95.30
51021;DHT22;38907;45.562;8.856;2022-09-13T12:27:16;27.10;94.90
51021;DHT22;38907;45.562;8.856;2022-09-13T12:32:25;26.80;94.80
51021;DHT22;38907;45.562;8.856;2022-09-13T12:37:46;26.90;94.90
51021;DHT22;38907;45.562;8.856;2022-09-13T12:43:25;27.10;94.60
51021;DHT22;38907;45.562;8.856;2022-09-13T12:48:58;27.30;94.50
51021;DHT22;38907;45.562;8.856;2022-09-13T12:54:31;27.30;94.90
51021;DHT22;38907;45.562;8.856;2022-09-13T12:59:50;27.20;95.00
51021;DHT22;38907;45.562;8.856;2022-09-13T13:05:04;27.40;94.90
51021;DHT22;38907;45.562;8.856;2022-09-13T13:10:23;27.70;95.20
51021;DHT22;38907;45.562;8.856;2022-09-13T13:15:57;27.70;94.50
51021;DHT22;38907;45.562;8.856;2022-09-13T13:21:28;27.60;95.00
51021;DHT22;38907;45.562;8.856;2022-09-13T13:26:46;27.80;94.80
51021;DHT22;38907;45.562;8.856;2022-09-13T13:32:09;27.70;93.40
51021;DHT22;38907;45.562;8.856;2022-09-13T13:37:27;27.30;94.30
51021;DHT22;38907;45.562;8.856;2022-09-13T13:42:31;27.30;94.40
51021;DHT22;38907;45.562;8.856;2022-09-13T13:48:05;27.20;94.50
51021;DHT22;38907;45.562;8.856;2022-09-13T13:53:22;27.20;95.00
51021;DHT22;38907;45.562;8.856;2022-09-13T13:58:44;27.40;94.80
51021;DHT22;38907;45.562;8.856;2022-09-13T14:04:09;27.90;94.60
51021;DHT22;38907;45.562;8.856;2022-09-13T14:09:29;28.00;94.50
51021;DHT22;38907;45.562;8.856;2022-09-13T14:14:46;28.00;94.40
51021;DHT22;38907;45.562;8.856;2022-09-13T14:19:53;27.90;94.80
51021;DHT22;38907;45.562;8.856;2022-09-13T14:25:12;27.90;94.90
51021;DHT22;38907;45.562;8.856;2022-09-13T14:30:19;27.70;95.00
51021;DHT22;38907;45.562;8.856;2022-09-13T14:35:26;27.60;94.50
51021;DHT22;38907;45.562;8.856;2022-09-13T14:40:31;27.60;94.60
51021;DHT22;38907;45.562;8.856;2022-09-13T14:45:35;27.50;94.60
51021;DHT22;38907;45.562;8.856;2022-09-13T14:50:41;27.30;94.10
51021;DHT22;38907;45.562;8.856;2022-09-13T14:55:52;27.30;94.70
51021;DHT22;38907;45.562;8.856;2022-09-13T15:00:58;27.10;94.80
51021;DHT22;38907;45.562;8.856;2022-09-13T15:06:02;27.00;94.40
51021;DHT22;38907;45.562;8.856;2022-09-13T15:11:13;26.90;94.80
51021;DHT22;38907;45.562;8.856;2022-09-13T15:16:27;26.90;94.90
51021;DHT22;38907;45.562;8.856;2022-09-13T15:21:35;27.00;94.40
51021;DHT22;38907;45.562;8.856;2022-09-13T15:26:39;26.90;94.80
51021;DHT22;38907;45.562;8.856;2022-09-13T15:31:42;26.80;94.40
51021;DHT22;38907;45.562;8.856;2022-09-13T15:36:45;26.70;94.60
51021;DHT22;38907;45.562;8.856;2022-09-13T15:41:54;26.90;94.50
51021;DHT22;38907;45.562;8.856;2022-09-13T15:47:00;27.00;94.50
51021;DHT22;38907;45.562;8.856;2022-09-13T15:52:05;27.00;94.70
51021;DHT22;38907;45.562;8.856;2022-09-13T15:57:16;27.20;95.00
51021;DHT22;38907;45.562;8.856;2022-09-13T16:02:21;27.10;95.60
51021;DHT22;38907;45.562;8.856;2022-09-13T16:07:25;26.90;95.30
51021;DHT22;38907;45.562;8.856;2022-09-13T16:12:30;26.90;94.90
51021;DHT22;38907;45.562;8.856;2022-09-13T16:17:32;27.00;95.00
51021;DHT22;38907;45.562;8.856;2022-09-13T16:22:35;27.00;94.90
51021;DHT22;38907;45.562;8.856;2022-09-13T16:27:39;26.90;94.70
51021;DHT22;38907;45.562;8.856;2022-09-13T16:32:43;26.90;94.60
51021;DHT22;38907;45.562;8.856;2022-09-13T16:37:45;26.80;94.60
51021;DHT22;38907;45.562;8.856;2022-09-13T16:42:52;26.60;94.70
51021;DHT22;38907;45.562;8.856;2022-09-13T16:47:55;26.60;94.80
51021;DHT22;38907;45.562;8.856;2022-09-13T16:52:58;26.50;94.80
51021;DHT22;38907;45.562;8.856;2022-09-13T16:58:02;26.40;95.30
51021;DHT22;38907;45.562;8.856;2022-09-13T17:03:05;26.20;95.60
51021;DHT22;38907;45.562;8.856;2022-09-13T17:08:07;26.10;95.90
51021;DHT22;38907;45.562;8.856;2022-09-13T17:13:11;26.00;96.10
51021;DHT22;38907;45.562;8.856;2022-09-13T17:18:14;25.90;96.30
51021;DHT22;38907;45.562;8.856;2022-09-13T17:23:17;25.80;96.40
51021;DHT22;38907;45.562;8.856;2022-09-13T17:28:42;25.80;96.30
51021;DHT22;38907;45.562;8.856;2022-09-13T17:33:45;25.70;96.50
51021;DHT22;38907;45.562;8.856;2022-09-13T17:38:48;25.60;96.50
51021;DHT22;38907;45.562;8.856;2022-09-13T17:43:57;25.60;96.50
51021;DHT22;38907;45.562;8.856;2022-09-13T17:48:59;25.50;96.90
51021;DHT22;38907;45.562;8.856;2022-09-13T17:54:04;25.40;97.10
51021;DHT22;38907;45.562;8.856;2022-09-13T17:59:10;25.40;97.10
51021;DHT22;38907;45.562;8.856;2022-09-13T18:04:17;25.30;97.40
51021;DHT22;38907;45.562;8.856;2022-09-13T18:09:23;25.20;97.70
51021;DHT22;38907;45.562;8.856;2022-09-13T18:14:29;25.10;97.90
51021;DHT22;38907;45.562;8.856;2022-09-13T18:19:34;25.00;98.00
51021;DHT22;38907;45.562;8.856;2022-09-13T18:24:38;25.00;98.30
51021;DHT22;38907;45.562;8.856;2022-09-13T18:29:42;25.00;98.50
51021;DHT22;38907;45.562;8.856;2022-09-13T18:34:45;24.90;98.50
51021;DHT22;38907;45.562;8.856;2022-09-13T18:39:47;24.90;98.60
51021;DHT22;38907;45.562;8.856;2022-09-13T18:44:52;24.80;98.70
51021;DHT22;38907;45.562;8.856;2022-09-13T18:49:56;24.80;99.20
51021;DHT22;38907;45.562;8.856;2022-09-13T18:55:00;24.60;99.20
51021;DHT22;38907;45.562;8.856;2022-09-13T19:00:05;24.60;99.50
51021;DHT22;38907;45.562;8.856;2022-09-13T19:05:08;24.60;99.20
51021;DHT22;38907;45.562;8.856;2022-09-13T19:10:13;24.50;99.20
51021;DHT22;38907;45.562;8.856;2022-09-13T19:15:18;24.60;99.10
51021;DHT22;38907;45.562;8.856;2022-09-13T19:20:21;24.60;99.10
51021;DHT22;38907;45.562;8.856;2022-09-13T19:25:23;24.50;99.20
51021;DHT22;38907;45.562;8.856;2022-09-13T19:30:33;24.50;99.10
51021;DHT22;38907;45.562;8.856;2022-09-13T19:35:36;24.40;99.10
51021;DHT22;38907;45.562;8.856;2022-09-13T19:40:38;24.40;99.10
51021;DHT22;38907;45.562;8.856;2022-09-13T19:45:54;24.30;99.40
51021;DHT22;38907;45.562;8.856;2022-09-13T19:51:01;24.20;99.50
51021;DHT22;38907;45.562;8.856;2022-09-13T19:56:07;24.10;99.60
51021;DHT22;38907;45.562;8.856;2022-09-13T20:01:13;24.10;99.30
51021;DHT22;38907;45.562;8.856;2022-09-13T20:06:16;24.20;99.20
51021;DHT22;38907;45.562;8.856;2022-09-13T20:11:19;24.10;99.10
51021;DHT22;38907;45.562;8.856;2022-09-13T20:16:26;24.10;99.20
51021;DHT22;38907;45.562;8.856;2022-09-13T20:21:31;24.10;99.30
51021;DHT22;38907;45.562;8.856;2022-09-13T20:26:34;24.10;99.60
51021;DHT22;38907;45.562;8.856;2022-09-13T20:31:38;24.00;99.90
51021;DHT22;38907;45.562;8.856;2022-09-13T20:36:41;23.90;99.90
51021;DHT22;38907;45.562;8.856;2022-09-13T20:41:47;23.90;99.90
51021;DHT22;38907;45.562;8.856;2022-09-13T20:46:51;23.90;99.90
51021;DHT22;38907;45.562;8.856;2022-09-13T20:51:54;23.90;99.90
51021;DHT22;38907;45.562;8.856;2022-09-13T20:56:57;23.90;99.90
51021;DHT22;38907;45.562;8.856;2022-09-13T21:02:01;23.80;99.90
51021;DHT22;38907;45.562;8.856;2022-09-13T21:07:04;23.80;99.90
51021;DHT22;38907;45.562;8.856;2022-09-13T21:12:32;23.80;99.90
51021;DHT22;38907;45.562;8.856;2022-09-13T21:17:36;23.80;99.90
51021;DHT22;38907;45.562;8.856;2022-09-13T21:22:39;23.80;99.90
51021;DHT22;38907;45.562;8.856;2022-09-13T21:27:43;23.70;99.90
51021;DHT22;38907;45.562;8.856;2022-09-13T21:32:48;23.70;99.90
51021;DHT22;38907;45.562;8.856;2022-09-13T21:37:50;23.70;99.90
51021;DHT22;38907;45.562;8.856;2022-09-13T21:42:54;23.70;99.90
51021;DHT22;38907;45.562;8.856;2022-09-13T21:47:57;23.60;99.90
51021;DHT22;38907;45.562;8.856;2022-09-13T21:53:00;23.60;99.90
51021;DHT22;38907;45.562;8.856;2022-09-13T21:58:02;23.60;99.90
51021;DHT22;38907;45.562;8.856;2022-09-13T22:03:08;23.50;99.90
51021;DHT22;38907;45.562;8.856;2022-09-13T22:08:11;23.50;99.90
51021;DHT22;38907;45.562;8.856;2022-09-13T22:13:13;23.50;99.90
51021;DHT22;38907;45.562;8.856;2022-09-13T22:18:17;23.50;99.90
51021;DHT22;38907;45.562;8.856;2022-09-13T22:23:20;23.50;99.90
51021;DHT22;38907;45.562;8.856;2022-09-13T22:28:22;23.50;99.90
51021;DHT22;38907;45.562;8.856;2022-09-13T22:33:26;23.50;99.90
51021;DHT22;38907;45.562;8.856;2022-09-13T22:38:29;23.40;99.90
51021;DHT22;38907;45.562;8.856;2022-09-13T22:43:32;23.50;99.90
51021;DHT22;38907;45.562;8.856;2022-09-13T22:48:37;23.50;99.90
51021;DHT22;38907;45.562;8.856;2022-09-13T22:53:41;23.50;99.90
51021;DHT22;38907;45.562;8.856;2022-09-13T22:58:44;23.40;99.90
51021;DHT22;38907;45.562;8.856;2022-09-13T23:03:48;23.50;99.90
51021;DHT22;38907;45.562;8.856;2022-09-13T23:08:53;23.50;99.90
51021;DHT22;38907;45.562;8.856;2022-09-13T23:13:58;23.50;99.90
51021;DHT22;38907;45.562;8.856;2022-09-13T23:19:03;23.40;99.90
51021;DHT22;38907;45.562;8.856;2022-09-13T23:24:09;23.40;99.90
51021;DHT22;38907;45.562;8.856;2022-09-13T23:29:14;23.40;99.90
51021;DHT22;38907;45.562;8.856;2022-09-13T23:34:18;23.40;99.90
51021;DHT22;38907;45.562;8.856;2022-09-13T23:39:21;23.40;99.90
51021;DHT22;38907;45.562;8.856;2022-09-13T23:44:23;23.30;99.90
51021;DHT22;38907;45.562;8.856;2022-09-13T23:49:27;23.30;99.90
51021;DHT22;38907;45.562;8.856;2022-09-13T23:54:29;23.20;99.90
51021;DHT22;38907;45.562;8.856;2022-09-13T23:59:31;23.20;99.90
